createdAt,value
2023-01-17T00:02:11.762Z,3.91
2023-01-17T00:04:56.548Z,3.85
2023-01-17T00:07:43.015Z,3.71
2023-01-17T00:10:15.043Z,3.85
2023-01-17T00:12:50.738Z,3.80
2023-01-17T00:15:19.688Z,3.68
2023-01-17T00:17:47.521Z,3.61
2023-01-17T00:20:33.992Z,3.51
2023-01-17T00:23:18.923Z,3.44
2023-01-17T00:26:03.999Z,3.37
2023-01-17T00:28:42.103Z,3.30
2023-01-17T00:31:13.344Z,3.43
2023-01-17T00:33:42.339Z,3.54
2023-01-17T00:36:12.616Z,3.65
2023-01-17T00:38:42.242Z,3.61
2023-01-17T00:41:14.372Z,3.64
2023-01-17T00:43:59.496Z,3.66
2023-01-17T00:46:44.927Z,3.66
2023-01-17T00:49:32.709Z,3.61
2023-01-17T00:52:18.000Z,3.66
2023-01-17T00:55:03.005Z,3.76
2023-01-17T00:57:48.127Z,3.76
2023-01-17T01:00:33.404Z,3.82
2023-01-17T01:03:18.373Z,3.73
2023-01-17T01:06:03.357Z,3.90
2023-01-17T01:08:49.011Z,3.98
2023-01-17T01:11:37.154Z,3.91
2023-01-17T01:14:23.539Z,3.98
2023-01-17T01:17:08.431Z,3.86
2023-01-17T01:19:53.275Z,3.80
2023-01-17T01:22:38.011Z,3.95
2023-01-17T01:25:23.372Z,3.78
2023-01-17T01:28:08.344Z,3.71
2023-01-17T01:30:53.653Z,3.65
2023-01-17T01:33:20.413Z,3.46
2023-01-17T01:35:52.472Z,3.56
2023-01-17T01:38:21.005Z,3.59
2023-01-17T01:40:50.826Z,3.84
2023-01-17T01:43:20.324Z,3.94
2023-01-17T01:45:57.657Z,3.86
2023-01-17T01:48:54.804Z,3.98
2023-01-17T01:51:38.631Z,4.07
2023-01-17T01:54:09.532Z,4.07
2023-01-17T01:56:37.188Z,4.05
2023-01-17T01:59:08.554Z,4.12
2023-01-17T02:01:35.487Z,4.05
2023-01-17T02:04:03.193Z,4.09
2023-01-17T02:06:39.720Z,4.10
2023-01-17T02:09:08.672Z,4.08
2023-01-17T02:11:38.029Z,4.18
2023-01-17T02:14:05.013Z,4.30
2023-01-17T02:16:50.267Z,4.26
2023-01-17T02:19:42.614Z,4.17
2023-01-17T02:22:40.048Z,4.13
2023-01-17T02:25:31.054Z,4.10
2023-01-17T02:28:04.200Z,4.00
2023-01-17T02:30:34.224Z,3.92
2023-01-17T02:33:25.779Z,3.86
2023-01-17T02:36:04.605Z,3.97
2023-01-17T02:38:39.632Z,3.97
2023-01-17T02:41:52.491Z,4.07
2023-01-17T02:44:21.057Z,3.89
2023-01-17T02:46:52.491Z,3.89
2023-01-17T02:49:23.392Z,3.87
2023-01-17T02:52:20.418Z,3.95
2023-01-17T02:55:04.875Z,3.81
2023-01-17T02:57:42.633Z,4.00
2023-01-17T03:00:24.356Z,4.01
2023-01-17T03:03:03.207Z,4.01
2023-01-17T03:05:57.239Z,3.89
2023-01-17T03:08:25.343Z,3.95
2023-01-17T03:10:51.837Z,3.95
2023-01-17T03:13:20.597Z,3.77
2023-01-17T03:15:47.263Z,3.83
2023-01-17T03:18:15.872Z,3.91
2023-01-17T03:20:42.875Z,3.93
2023-01-17T03:23:09.376Z,3.88
2023-01-17T03:25:35.850Z,4.25
2023-01-17T03:28:02.331Z,4.27
2023-01-17T03:30:28.863Z,4.06
2023-01-17T03:32:55.348Z,4.12
2023-01-17T03:35:21.925Z,4.25
2023-01-17T03:37:48.437Z,4.18
2023-01-17T03:40:15.094Z,4.27
2023-01-17T03:42:41.612Z,4.27
2023-01-17T03:45:08.858Z,4.22
2023-01-17T03:47:36.088Z,4.04
2023-01-17T03:50:03.565Z,3.96
2023-01-17T03:52:30.439Z,4.14
2023-01-17T03:54:57.068Z,4.06
2023-01-17T03:57:23.611Z,4.23
2023-01-17T03:59:50.773Z,4.06
2023-01-17T04:02:17.641Z,4.08
2023-01-17T04:04:44.144Z,4.06
2023-01-17T04:07:10.641Z,4.10
2023-01-17T04:09:37.096Z,4.19
2023-01-17T04:12:04.045Z,4.26
2023-01-17T04:14:30.705Z,4.20
2023-01-17T04:16:57.603Z,4.27
2023-01-17T04:19:24.421Z,4.02
2023-01-17T04:21:50.893Z,3.86
2023-01-17T04:24:18.091Z,3.74
2023-01-17T04:26:44.673Z,3.57
2023-01-17T04:29:11.106Z,3.66
2023-01-17T04:31:37.729Z,3.59
2023-01-17T04:34:04.255Z,3.72
2023-01-17T04:36:30.724Z,3.58
2023-01-17T04:38:57.134Z,3.52
2023-01-17T04:41:26.818Z,3.45
2023-01-17T04:43:55.730Z,3.61
2023-01-17T04:46:22.282Z,3.52
2023-01-17T04:48:48.731Z,3.61
2023-01-17T04:51:15.245Z,3.68
2023-01-17T04:53:41.804Z,3.58
2023-01-17T04:56:08.379Z,3.65
2023-01-17T04:58:34.908Z,3.45
2023-01-17T05:01:06.964Z,3.40
2023-01-17T05:03:34.120Z,3.45
2023-01-17T05:06:00.940Z,3.36
2023-01-17T05:08:27.979Z,3.18
2023-01-17T05:10:56.790Z,3.31
2023-01-17T05:13:23.232Z,3.08
2023-01-17T05:15:50.490Z,3.13
2023-01-17T05:18:18.173Z,3.03
2023-01-17T05:20:44.763Z,3.28
2023-01-17T05:23:11.434Z,3.11
2023-01-17T05:25:37.965Z,3.16
2023-01-17T05:28:04.599Z,3.09
2023-01-17T05:30:32.701Z,3.18
2023-01-17T05:32:59.165Z,3.10
2023-01-17T05:35:32.737Z,3.16
2023-01-17T05:37:59.406Z,3.21
2023-01-17T05:40:30.920Z,3.19
2023-01-17T05:43:02.952Z,2.98
2023-01-17T05:45:31.585Z,3.07
2023-01-17T05:48:01.983Z,3.05
2023-01-17T05:50:34.662Z,3.05
2023-01-17T05:53:03.935Z,3.01
2023-01-17T05:55:31.574Z,3.06
2023-01-17T05:57:58.755Z,2.97
2023-01-17T06:00:28.454Z,2.98
2023-01-17T06:02:57.656Z,2.94
2023-01-17T06:05:24.884Z,2.78
2023-01-17T06:07:52.323Z,2.99
2023-01-17T06:10:20.735Z,3.01
2023-01-17T06:12:47.977Z,2.89
2023-01-17T06:15:16.629Z,2.92
2023-01-17T06:17:43.251Z,2.67
2023-01-17T06:20:11.853Z,3.00
2023-01-17T06:22:38.302Z,2.72
2023-01-17T06:25:05.209Z,2.93
2023-01-17T06:27:31.713Z,2.88
2023-01-17T06:30:01.329Z,3.03
2023-01-17T06:32:30.788Z,3.00
2023-01-17T06:35:00.234Z,3.09
2023-01-17T06:37:30.638Z,2.87
2023-01-17T06:39:59.973Z,2.99
2023-01-17T06:42:27.743Z,2.81
2023-01-17T06:44:54.197Z,3.02
2023-01-17T06:47:21.679Z,3.06
2023-01-17T06:49:48.132Z,3.14
2023-01-17T06:52:14.557Z,2.94
2023-01-17T06:54:41.032Z,3.06
2023-01-17T06:57:07.568Z,2.85
2023-01-17T06:59:34.259Z,3.06
2023-01-17T07:02:00.764Z,3.19
2023-01-17T07:04:31.139Z,3.31
2023-01-17T07:07:01.196Z,3.19
2023-01-17T07:09:30.812Z,3.51
2023-01-17T07:12:01.924Z,3.55
2023-01-17T07:14:29.369Z,3.49
2023-01-17T07:17:00.663Z,3.41
2023-01-17T07:19:30.712Z,3.29
2023-01-17T07:22:00.362Z,3.32
2023-01-17T07:24:29.632Z,3.34
2023-01-17T07:26:58.232Z,3.06
2023-01-17T07:29:24.716Z,3.43
2023-01-17T07:31:51.203Z,3.51
2023-01-17T07:34:17.712Z,3.60
2023-01-17T07:36:44.380Z,3.59
2023-01-17T07:39:11.071Z,3.43
2023-01-17T07:41:41.206Z,3.40
2023-01-17T07:44:08.543Z,3.53
2023-01-17T07:46:35.073Z,3.55
2023-01-17T07:49:01.924Z,3.59
2023-01-17T07:51:28.756Z,3.68
2023-01-17T07:53:58.302Z,3.80
2023-01-17T07:56:25.003Z,3.64
2023-01-17T07:58:51.532Z,3.70
2023-01-17T08:01:18.078Z,3.53
2023-01-17T08:03:44.648Z,3.62
2023-01-17T08:06:17.184Z,3.77
2023-01-17T08:08:43.943Z,3.79
2023-01-17T08:11:10.380Z,3.67
2023-01-17T08:13:36.837Z,3.77
2023-01-17T08:16:03.614Z,3.74
2023-01-17T08:18:30.808Z,3.80
2023-01-17T08:21:00.855Z,3.70
2023-01-17T08:23:31.568Z,3.80
2023-01-17T08:26:01.885Z,3.92
2023-01-17T08:28:28.672Z,3.87
2023-01-17T08:30:55.127Z,3.93
2023-01-17T08:33:21.668Z,3.85
2023-01-17T08:35:54.592Z,3.78
2023-01-17T08:38:23.676Z,3.76
2023-01-17T08:40:50.896Z,3.69
2023-01-17T08:43:17.493Z,3.61
2023-01-17T08:45:48.630Z,3.63
2023-01-17T08:48:15.342Z,3.90
2023-01-17T08:50:41.954Z,3.87
2023-01-17T08:53:08.465Z,3.64
2023-01-17T08:55:39.488Z,3.52
2023-01-17T08:58:05.932Z,3.54
2023-01-17T09:00:32.661Z,3.40
2023-01-17T09:02:59.441Z,3.34
2023-01-17T09:05:28.034Z,3.23
2023-01-17T09:08:00.307Z,3.26
2023-01-17T09:10:30.826Z,3.22
2023-01-17T09:13:00.298Z,3.31
2023-01-17T09:15:29.814Z,3.33
2023-01-17T09:17:58.426Z,3.34
2023-01-17T09:20:29.993Z,3.34
2023-01-17T09:22:57.858Z,3.25
2023-01-17T09:25:24.408Z,3.37
2023-01-17T09:27:50.920Z,3.41
2023-01-17T09:30:17.702Z,3.50
2023-01-17T09:32:44.223Z,3.62
2023-01-17T09:35:10.761Z,3.55
2023-01-17T09:37:37.475Z,3.52
2023-01-17T09:40:04.442Z,3.50
2023-01-17T09:42:40.114Z,3.74
2023-01-17T09:45:16.504Z,3.79
2023-01-17T09:47:52.867Z,3.73
2023-01-17T09:50:34.552Z,3.73
2023-01-17T09:53:14.554Z,3.76
2023-01-17T09:55:51.508Z,3.79
2023-01-17T09:58:23.980Z,3.82
2023-01-17T10:01:05.888Z,3.90
2023-01-17T10:03:59.575Z,4.25
2023-01-17T10:06:29.451Z,4.31
2023-01-17T10:09:14.315Z,4.34
2023-01-17T10:12:18.851Z,4.40
2023-01-17T10:14:55.092Z,4.36
2023-01-17T10:17:30.327Z,4.40
2023-01-17T10:20:18.144Z,4.51
2023-01-17T10:23:12.761Z,4.50
2023-01-17T10:25:52.614Z,4.58
2023-01-17T10:28:40.643Z,4.68
2023-01-17T10:31:13.093Z,4.81
2023-01-17T10:33:48.419Z,4.94
2023-01-17T10:36:20.651Z,5.09
2023-01-17T10:38:51.814Z,5.42
2023-01-17T10:41:22.142Z,5.91
2023-01-17T10:44:17.232Z,6.50
2023-01-17T10:47:00.137Z,6.35
2023-01-17T10:49:30.433Z,5.75
2023-01-17T10:52:21.405Z,5.68
2023-01-17T10:55:11.099Z,5.70
2023-01-17T10:57:47.917Z,5.29
2023-01-17T11:00:40.026Z,5.68
2023-01-17T11:03:08.732Z,6.02
2023-01-17T11:05:35.763Z,6.14
2023-01-17T11:08:02.637Z,6.21
2023-01-17T11:10:40.023Z,6.12
2023-01-17T11:13:28.161Z,5.87
2023-01-17T11:15:58.874Z,5.95
2023-01-17T11:18:31.630Z,5.73
2023-01-17T11:21:12.136Z,5.84
2023-01-17T11:23:42.423Z,5.78
2023-01-17T11:26:13.077Z,5.76
2023-01-17T11:28:41.477Z,5.56
2023-01-17T11:31:25.140Z,5.53
2023-01-17T11:34:07.335Z,5.38
2023-01-17T11:36:34.164Z,5.49
2023-01-17T11:39:04.638Z,5.61
2023-01-17T11:41:41.451Z,5.76
2023-01-17T11:44:35.747Z,6.20
2023-01-17T11:47:19.186Z,6.26
2023-01-17T11:49:48.412Z,6.15
2023-01-17T11:52:28.482Z,6.13
2023-01-17T11:54:57.714Z,6.06
2023-01-17T11:57:30.767Z,6.02
2023-01-17T12:00:14.903Z,5.82
2023-01-17T12:02:59.996Z,5.87
2023-01-17T12:05:53.475Z,5.68
2023-01-17T12:08:22.668Z,5.58
2023-01-17T12:11:04.538Z,5.51
2023-01-17T12:14:01.877Z,5.46
2023-01-17T12:17:14.053Z,5.97
2023-01-17T12:20:05.112Z,5.88
2023-01-17T12:23:05.602Z,5.66
2023-01-17T12:25:43.239Z,5.51
2023-01-17T12:28:48.132Z,5.62
2023-01-17T12:31:33.496Z,5.70
2023-01-17T12:34:12.002Z,6.19
2023-01-17T12:37:02.011Z,6.68
2023-01-17T12:39:44.436Z,6.70
2023-01-17T12:42:28.910Z,6.92
2023-01-17T12:44:58.258Z,7.13
2023-01-17T12:47:27.863Z,6.73
2023-01-17T12:50:19.034Z,6.56
2023-01-17T12:52:58.448Z,6.32
2023-01-17T12:55:48.522Z,6.39
2023-01-17T12:58:21.096Z,6.27
2023-01-17T13:00:54.890Z,6.01
2023-01-17T13:03:45.187Z,6.09
2023-01-17T13:06:22.031Z,6.25
2023-01-17T13:08:53.084Z,6.00
2023-01-17T13:11:45.953Z,5.97
2023-01-17T13:14:12.469Z,5.88
2023-01-17T13:16:48.783Z,5.84
2023-01-17T13:19:33.711Z,5.84
2023-01-17T13:22:02.397Z,5.78
2023-01-17T13:24:43.482Z,5.79
2023-01-17T13:27:09.862Z,5.73
2023-01-17T13:29:54.303Z,5.63
2023-01-17T13:32:53.287Z,5.72
2023-01-17T13:35:39.943Z,5.81
2023-01-17T13:38:28.676Z,5.77
2023-01-17T13:41:02.750Z,5.78
2023-01-17T13:43:39.413Z,5.82
2023-01-17T13:46:06.770Z,5.77
2023-01-17T13:48:34.549Z,5.86
2023-01-17T13:51:03.677Z,5.78
2023-01-17T13:53:36.777Z,5.83
2023-01-17T13:56:27.775Z,5.67
2023-01-17T13:59:02.805Z,5.60
2023-01-17T14:01:34.617Z,5.68
2023-01-17T14:04:08.627Z,5.78
2023-01-17T14:06:44.802Z,5.79
2023-01-17T14:09:14.369Z,5.84
2023-01-17T14:12:09.251Z,5.85
2023-01-17T14:14:44.455Z,5.77
2023-01-17T14:17:25.377Z,5.87
2023-01-17T14:19:53.911Z,5.87
2023-01-17T14:22:20.354Z,5.94
2023-01-17T14:25:14.947Z,5.83
2023-01-17T14:27:50.054Z,5.75
2023-01-17T14:30:24.705Z,5.65
2023-01-17T14:33:08.692Z,5.53
2023-01-17T14:35:39.377Z,5.43
2023-01-17T14:38:40.901Z,5.39
2023-01-17T14:41:13.351Z,5.31
2023-01-17T14:43:42.781Z,5.38
2023-01-17T14:46:17.275Z,5.25
2023-01-17T14:48:43.800Z,5.36
2023-01-17T14:51:18.598Z,5.44
2023-01-17T14:54:17.303Z,5.48
2023-01-17T14:56:43.873Z,5.42
2023-01-17T14:59:17.128Z,5.48
2023-01-17T15:02:07.154Z,5.37
2023-01-17T15:04:39.088Z,5.35
2023-01-17T15:07:06.100Z,5.24
2023-01-17T15:09:37.481Z,5.41
2023-01-17T15:12:05.101Z,5.44
2023-01-17T15:14:38.377Z,5.42
2023-01-17T15:17:16.201Z,5.31
2023-01-17T15:19:44.623Z,5.08
2023-01-17T15:22:12.574Z,5.37
2023-01-17T15:24:44.655Z,5.43
2023-01-17T15:27:16.857Z,5.28
2023-01-17T15:29:45.464Z,5.28
2023-01-17T15:32:32.224Z,5.35
2023-01-17T15:35:04.718Z,5.35
2023-01-17T15:37:39.186Z,5.24
2023-01-17T15:40:19.384Z,5.33
2023-01-17T15:42:56.671Z,5.24
2023-01-17T15:45:28.029Z,5.23
2023-01-17T15:47:54.835Z,4.80
2023-01-17T15:50:23.346Z,5.19
2023-01-17T15:52:54.304Z,5.26
2023-01-17T15:55:30.869Z,5.03
2023-01-17T15:57:57.723Z,4.96
2023-01-17T16:00:37.815Z,4.97
2023-01-17T16:03:19.725Z,4.89
2023-01-17T16:05:47.199Z,4.83
2023-01-17T16:08:16.307Z,4.89
2023-01-17T16:10:43.599Z,4.82
2023-01-17T16:13:12.820Z,4.84
2023-01-17T16:15:41.293Z,4.64
2023-01-17T16:18:18.967Z,4.75
2023-01-17T16:21:19.392Z,4.71
2023-01-17T16:23:46.868Z,4.37
2023-01-17T16:26:13.504Z,4.46
2023-01-17T16:28:40.042Z,4.45
2023-01-17T16:31:06.607Z,4.37
2023-01-17T16:33:33.374Z,4.12
2023-01-17T16:36:03.265Z,4.12
2023-01-17T16:38:32.204Z,4.23
2023-01-17T16:41:01.016Z,4.03
2023-01-17T16:43:27.566Z,4.02
2023-01-17T16:45:55.559Z,4.04
2023-01-17T16:48:22.710Z,3.72
2023-01-17T16:50:52.196Z,3.98
2023-01-17T16:53:27.825Z,3.75
2023-01-17T16:55:57.188Z,3.80
2023-01-17T16:58:26.625Z,3.62
2023-01-17T17:00:57.918Z,3.65
2023-01-17T17:03:57.197Z,3.82
2023-01-17T17:06:36.896Z,3.81
2023-01-17T17:09:06.493Z,3.86
2023-01-17T17:11:32.935Z,3.86
2023-01-17T17:14:00.979Z,3.77
2023-01-17T17:16:35.609Z,3.98
2023-01-17T17:19:05.578Z,4.09
2023-01-17T17:21:33.907Z,4.24
2023-01-17T17:24:02.109Z,4.19
2023-01-17T17:26:35.543Z,4.22
2023-01-17T17:29:03.291Z,4.28
2023-01-17T17:31:31.788Z,4.15
2023-01-17T17:34:03.304Z,4.29
2023-01-17T17:36:31.650Z,3.99
2023-01-17T17:38:58.386Z,3.97
2023-01-17T17:41:27.767Z,3.90
2023-01-17T17:43:55.379Z,3.92
2023-01-17T17:46:23.788Z,3.95
2023-01-17T17:48:50.383Z,3.88
2023-01-17T17:51:22.803Z,3.91
2023-01-17T17:53:52.011Z,3.75
2023-01-17T17:56:20.461Z,3.59
2023-01-17T17:58:47.792Z,3.59
2023-01-17T18:01:14.611Z,3.38
2023-01-17T18:03:41.101Z,3.44
2023-01-17T18:06:10.201Z,3.42
2023-01-17T18:08:37.651Z,3.35
2023-01-17T18:11:11.340Z,3.36
2023-01-17T18:13:38.910Z,3.16
2023-01-17T18:16:13.690Z,3.26
2023-01-17T18:18:43.793Z,3.24
2023-01-17T18:21:17.880Z,3.26
2023-01-17T18:23:45.120Z,2.98
2023-01-17T18:26:17.838Z,3.30
2023-01-17T18:28:44.819Z,3.22
2023-01-17T18:31:11.544Z,2.96
2023-01-17T18:33:39.651Z,3.29
2023-01-17T18:36:08.007Z,3.12
2023-01-17T18:38:39.480Z,3.33
2023-01-17T18:41:14.319Z,3.30
2023-01-17T18:43:41.543Z,3.46
2023-01-17T18:46:09.752Z,3.53
2023-01-17T18:48:36.748Z,3.27
2023-01-17T18:51:07.511Z,3.08
2023-01-17T18:53:35.503Z,3.37
2023-01-17T18:56:06.384Z,3.22
2023-01-17T18:58:36.599Z,3.05
2023-01-17T19:01:15.565Z,3.18
2023-01-17T19:03:44.892Z,3.16
2023-01-17T19:06:17.933Z,3.08
2023-01-17T19:08:45.156Z,3.17
2023-01-17T19:11:12.783Z,2.94
2023-01-17T19:13:41.991Z,3.12
2023-01-17T19:16:13.932Z,3.06
2023-01-17T19:18:41.061Z,2.80
2023-01-17T19:21:10.839Z,3.06
2023-01-17T19:23:38.127Z,2.82
2023-01-17T19:26:09.112Z,3.02
2023-01-17T19:28:41.090Z,2.64
2023-01-17T19:31:11.666Z,2.79
2023-01-17T19:33:40.616Z,3.00
2023-01-17T19:36:16.862Z,2.75
2023-01-17T19:38:52.253Z,3.07
2023-01-17T19:41:28.553Z,3.06
2023-01-17T19:43:57.023Z,3.09
2023-01-17T19:46:26.103Z,2.88
2023-01-17T19:48:53.217Z,3.08
2023-01-17T19:51:33.803Z,3.12
2023-01-17T19:54:02.432Z,3.11
2023-01-17T19:56:29.423Z,3.10
2023-01-17T19:59:02.986Z,2.67
2023-01-17T20:01:35.697Z,2.88
2023-01-17T20:04:05.352Z,2.83
2023-01-17T20:06:35.980Z,2.86
2023-01-17T20:09:06.605Z,2.71
2023-01-17T20:11:33.718Z,2.60
2023-01-17T20:14:03.206Z,2.50
2023-01-17T20:16:33.063Z,2.51
2023-01-17T20:19:00.191Z,2.25
2023-01-17T20:21:27.810Z,2.25
2023-01-17T20:23:56.171Z,2.26
2023-01-17T20:26:25.508Z,2.46
2023-01-17T20:28:53.310Z,2.27
2023-01-17T20:31:25.171Z,2.38
2023-01-17T20:33:54.128Z,2.37
2023-01-17T20:36:23.057Z,2.51
2023-01-17T20:38:49.772Z,2.52
2023-01-17T20:41:17.797Z,2.57
2023-01-17T20:43:47.603Z,2.40
2023-01-17T20:46:14.899Z,2.55
2023-01-17T20:48:49.465Z,2.96
2023-01-17T20:51:17.322Z,3.04
2023-01-17T20:53:45.492Z,3.11
2023-01-17T20:56:14.542Z,3.11
2023-01-17T20:58:41.990Z,3.02
2023-01-17T21:01:13.495Z,2.92
2023-01-17T21:03:40.296Z,3.07
2023-01-17T21:06:11.426Z,3.03
2023-01-17T21:08:40.187Z,3.06
2023-01-17T21:11:08.377Z,3.15
2023-01-17T21:13:35.332Z,3.13
2023-01-17T21:16:05.919Z,3.08
2023-01-17T21:18:36.312Z,3.03
2023-01-17T21:21:21.661Z,2.96
2023-01-17T21:23:49.375Z,2.94
2023-01-17T21:26:17.414Z,2.67
2023-01-17T21:28:45.998Z,2.72
2023-01-17T21:31:26.219Z,2.77
2023-01-17T21:34:10.902Z,2.89
2023-01-17T21:36:40.061Z,2.94
2023-01-17T21:39:11.118Z,2.99
2023-01-17T21:41:39.619Z,3.06
2023-01-17T21:44:36.456Z,3.06
2023-01-17T21:47:05.942Z,3.13
2023-01-17T21:49:32.815Z,3.22
2023-01-17T21:52:00.104Z,3.15
2023-01-17T21:54:46.774Z,3.14
2023-01-17T21:57:37.855Z,3.28
2023-01-17T22:00:14.475Z,3.39
2023-01-17T22:02:41.494Z,3.38
2023-01-17T22:05:09.270Z,3.59
2023-01-17T22:08:12.114Z,3.65
2023-01-17T22:10:45.304Z,3.42
2023-01-17T22:13:17.097Z,3.67
2023-01-17T22:15:44.095Z,3.59
2023-01-17T22:18:13.116Z,3.68
2023-01-17T22:20:41.342Z,3.59
2023-01-17T22:23:09.450Z,3.60
2023-01-17T22:25:42.117Z,3.53
2023-01-17T22:28:08.566Z,3.40
2023-01-17T22:30:38.301Z,3.30
2023-01-17T22:33:07.566Z,3.28
2023-01-17T22:35:38.592Z,3.47
2023-01-17T22:38:08.432Z,3.33
2023-01-17T22:40:38.355Z,3.40
2023-01-17T22:43:07.757Z,3.42
2023-01-17T22:45:37.364Z,3.52
2023-01-17T22:48:12.828Z,3.65
2023-01-17T22:50:39.579Z,3.76
2023-01-17T22:53:10.478Z,3.70
2023-01-17T22:55:37.356Z,3.89
2023-01-17T22:58:06.671Z,3.78
2023-01-17T23:00:33.413Z,3.83
2023-01-17T23:03:00.508Z,3.67
2023-01-17T23:05:27.213Z,3.61
2023-01-17T23:07:53.733Z,3.55
2023-01-17T23:10:38.897Z,3.39
2023-01-17T23:13:09.903Z,3.51
2023-01-17T23:15:58.426Z,3.65
2023-01-17T23:18:44.031Z,3.39
2023-01-17T23:21:10.473Z,3.56
2023-01-17T23:23:38.908Z,3.65
2023-01-17T23:26:09.677Z,3.56
2023-01-17T23:28:38.830Z,3.79
2023-01-17T23:31:08.751Z,3.68
2023-01-17T23:33:35.273Z,3.83
2023-01-17T23:36:01.861Z,3.77
2023-01-17T23:38:33.647Z,3.80
2023-01-17T23:41:26.995Z,3.71
2023-01-17T23:43:55.950Z,3.87
2023-01-17T23:46:24.533Z,3.81
2023-01-17T23:48:51.296Z,3.82
2023-01-17T23:51:17.783Z,3.78
2023-01-17T23:53:44.309Z,3.86
2023-01-17T23:56:18.094Z,4.03
2023-01-17T23:58:44.857Z,4.00
